Time;durP1;ratioP1;P1;durP2;ratioP2;P2;SDS_P1;SDS_P2;PMS_P1;PMS_P2;Temp;Humidity;BMP_temperature;BMP_pressure;BME280_temperature;BME280_humidity;BME280_pressure;Samples;Min_cycle;Max_cycle;Signal;HPM_P1;HPM_P2
2022/01/28 00:00:36;;;;;;;;;;;;;;;11.77;42.28;99250.53;4507842;31;34125;-83
2022/01/28 00:03:08;;;;;;;;;;;;;;;10.79;43.97;99252.03;4499367;31;34439;-84
2022/01/28 00:05:36;;;;;;;;;;;;;;;10.89;44.15;99259.97;4501526;31;33099;-84
2022/01/28 00:08:05;;;;;;;;;;;;;;;9.52;47.32;99269.00;4504008;31;34344;-84
2022/01/28 00:10:32;;;;;;;;;;;;;;;8.69;49.02;99274.22;4507806;31;32829;-84
2022/01/28 00:39:49;;;;;;;;;;;;;;;10.66;44.70;99274.34;4515179;31;34052;-84
2022/01/28 00:42:17;;;;;;;;;;;;;;;10.03;45.32;99272.47;4513749;31;34305;-84
2022/01/28 00:44:44;;;;;;;;;;;;;;;9.34;48.18;99286.75;4514807;31;35183;-84
2022/01/28 00:47:11;;;;;;;;;;;;;;;9.43;48.18;99290.41;4512016;31;33170;-84
2022/01/28 00:49:38;;;;;;;;;;;;;;;8.51;50.35;99290.16;4514988;31;33735;-84
2022/01/28 00:52:06;;;;;;;;;;;;;;;9.55;48.05;99288.91;4514203;31;34168;-84
2022/01/28 00:54:33;;;;;;;;;;;;;;;7.61;52.87;99275.88;4504743;31;35067;-84
2022/01/28 00:57:00;;;;;;;;;;;;;;;8.08;52.38;99276.22;4511699;31;33349;-84
2022/01/28 00:59:28;;;;;;;;;;;;;;;8.09;52.67;99277.97;4515216;31;34560;-84
2022/01/28 01:01:55;;;;;;;;;;;;;;;8.97;49.66;99262.72;4515004;31;35825;-84
2022/01/28 01:04:24;;;;;;;;;;;;;;;9.56;48.12;99263.03;4499663;31;33643;-84
2022/01/28 01:06:51;;;;;;;;;;;;;;;8.55;50.64;99273.91;4499235;31;33797;-84
2022/01/28 01:09:18;;;;;;;;;;;;;;;9.06;49.32;99268.13;4499082;31;34094;-84
2022/01/28 01:11:46;;;;;;;;;;;;;;;8.61;50.45;99263.72;4499198;31;34546;-84
2022/01/28 01:14:13;;;;;;;;;;;;;;;9.23;48.55;99266.72;4507433;31;34075;-84
2022/01/28 01:16:59;;;;;;;;;;;;;;;8.35;51.19;99264.81;4505186;31;33229;-84
2022/01/28 01:19:31;;;;;;;;;;;;;;;7.67;53.05;99264.84;4499065;31;34888;-84
2022/01/28 01:22:00;;;;;;;;;;;;;;;8.51;50.78;99254.00;4499003;31;33983;-85
2022/01/28 01:24:35;;;;;;;;;;;;;;;8.53;50.74;99247.16;4497763;31;36462;-84
2022/01/28 01:27:02;;;;;;;;;;;;;;;8.45;51.12;99246.13;4499788;31;34233;-85
2022/01/28 01:29:30;;;;;;;;;;;;;;;8.82;49.75;99250.34;4498891;31;33608;-85
2022/01/28 01:32:03;;;;;;;;;;;;;;;8.34;51.31;99244.97;4499080;31;35339;-85
2022/01/28 01:34:30;;;;;;;;;;;;;;;8.74;50.28;99245.03;4513856;31;33771;-84
2022/01/28 01:36:57;;;;;;;;;;;;;;;8.65;50.28;99251.72;4499807;31;33085;-84
2022/01/28 01:39:29;;;;;;;;;;;;;;;8.66;50.33;99240.53;4498882;31;33939;-84
2022/01/28 01:42:11;;;;;;;;;;;;;;;7.78;53.30;99240.19;4498866;31;34008;-84
2022/01/28 01:52:55;;;;;;;;;;;;;;;8.71;50.53;99234.66;4502933;31;35241;-84
2022/01/28 01:55:22;;;;;;;;;;;;;;;9.33;48.73;99233.28;4511286;31;34771;-84
2022/01/28 01:57:50;;;;;;;;;;;;;;;9.33;48.40;99241.03;4502493;31;32846;-83
2022/01/28 02:00:17;;;;;;;;;;;;;;;9.63;47.90;99248.50;4512578;31;35024;-84
2022/01/28 02:02:46;;;;;;;;;;;;;;;9.52;47.81;99235.34;4514012;31;35498;-84
2022/01/28 02:05:13;;;;;;;;;;;;;;;8.87;49.69;99237.56;4505746;31;34391;-84
2022/01/28 02:07:40;;;;;;;;;;;;;;;9.07;49.19;99235.34;4498418;31;33572;-84
2022/01/28 02:10:08;;;;;;;;;;;;;;;9.00;49.39;99248.16;4499911;31;34339;-85
2022/01/28 02:12:49;;;;;;;;;;;;;;;8.46;50.42;99237.53;4509627;31;34411;-85
2022/01/28 02:15:16;;;;;;;;;;;;;;;7.93;52.11;99250.91;4503076;31;33878;-84
2022/01/28 02:17:44;;;;;;;;;;;;;;;8.99;49.53;99235.22;4503509;31;33206;-85
2022/01/28 02:20:16;;;;;;;;;;;;;;;9.19;48.89;99243.34;4508278;31;34243;-84
2022/01/28 02:22:44;;;;;;;;;;;;;;;7.79;52.49;99247.97;4498924;31;34298;-84
2022/01/28 02:25:24;;;;;;;;;;;;;;;8.64;50.01;99232.78;4496901;31;34115;-85
2022/01/28 02:27:52;;;;;;;;;;;;;;;9.30;48.59;99228.03;4507017;31;33174;-84
2022/01/28 02:30:19;;;;;;;;;;;;;;;8.45;50.49;99240.97;4485969;31;34884;-84
2022/01/28 02:32:48;;;;;;;;;;;;;;;8.12;51.90;99236.72;4507627;31;34306;-84
2022/01/28 02:35:16;;;;;;;;;;;;;;;8.07;52.31;99251.25;4504897;31;33865;-84
2022/01/28 02:37:43;;;;;;;;;;;;;;;9.45;48.05;99246.44;4502912;31;33978;-84
2022/01/28 02:40:11;;;;;;;;;;;;;;;9.14;48.78;99232.06;4511078;31;34013;-83
2022/01/28 02:42:52;;;;;;;;;;;;;;;9.80;46.98;99222.87;4506472;31;35142;-83
2022/01/28 02:45:31;;;;;;;;;;;;;;;9.99;46.23;99222.34;4508915;31;33845;-84
2022/01/28 02:48:02;;;;;;;;;;;;;;;9.15;48.55;99224.31;4508771;31;34185;-84
2022/01/28 02:50:36;;;;;;;;;;;;;;;9.58;47.43;99227.69;4504346;31;34543;-83
2022/01/28 02:53:09;;;;;;;;;;;;;;;9.22;47.96;99223.59;4505557;31;35291;-84
2022/01/28 02:55:40;;;;;;;;;;;;;;;9.19;48.21;99239.03;4500038;31;34507;-84
2022/01/28 02:58:17;;;;;;;;;;;;;;;8.53;50.14;99223.91;4499846;31;33538;-83
2022/01/28 03:00:47;;;;;;;;;;;;;;;8.65;49.76;99224.16;4503041;31;34188;-84
2022/01/28 03:03:15;;;;;;;;;;;;;;;8.08;51.46;99237.50;4501343;31;36849;-86
2022/01/28 03:05:42;;;;;;;;;;;;;;;7.02;53.82;99250.22;4506241;31;34326;-84
2022/01/28 03:08:09;;;;;;;;;;;;;;;7.13;54.50;99268.56;4504534;31;34283;-84
2022/01/28 03:15:32;;;;;;;;;;;;;;;7.69;52.88;99256.31;4510370;31;34352;-84
2022/01/28 03:18:11;;;;;;;;;;;;;;;7.17;53.51;99244.63;4504895;31;34177;-83
2022/01/28 03:20:43;;;;;;;;;;;;;;;8.33;51.07;99230.28;4500998;31;33847;-84
2022/01/28 03:23:11;;;;;;;;;;;;;;;7.91;52.05;99252.56;4502074;31;34252;-84
2022/01/28 03:25:43;;;;;;;;;;;;;;;7.67;52.92;99251.94;4499969;31;34992;-84
2022/01/28 03:28:11;;;;;;;;;;;;;;;7.00;54.91;99256.16;4501958;31;33067;-84
2022/01/28 03:30:38;;;;;;;;;;;;;;;7.52;53.30;99257.59;4501693;31;34240;-85
2022/01/28 03:33:05;;;;;;;;;;;;;;;8.08;51.97;99265.88;4506882;31;34553;-84
2022/01/28 03:35:34;;;;;;;;;;;;;;;7.80;52.85;99242.00;4507446;31;35073;-84
2022/01/28 03:38:04;;;;;;;;;;;;;;;6.82;55.82;99257.41;4511405;31;32985;-83
2022/01/28 03:40:34;;;;;;;;;;;;;;;7.80;53.21;99260.06;4504707;31;34053;-83
2022/01/28 03:43:02;;;;;;;;;;;;;;;8.15;51.71;99257.47;4506403;31;34950;-84
2022/01/28 03:45:30;;;;;;;;;;;;;;;7.16;54.13;99262.59;4508636;31;35205;-83
2022/01/28 03:47:57;;;;;;;;;;;;;;;7.13;54.53;99260.84;4501481;31;33572;-84
2022/01/28 03:50:25;;;;;;;;;;;;;;;7.19;54.31;99270.44;4509983;31;34071;-84
2022/01/28 03:52:52;;;;;;;;;;;;;;;7.16;54.81;99275.50;4506984;31;34387;-84
2022/01/28 03:55:19;;;;;;;;;;;;;;;8.34;51.26;99268.22;4505960;31;35069;-85
2022/01/28 03:57:47;;;;;;;;;;;;;;;6.97;54.77;99276.69;4507210;31;34284;-84
2022/01/28 04:00:14;;;;;;;;;;;;;;;7.90;52.31;99284.37;4505767;31;34082;-84
2022/01/28 04:02:44;;;;;;;;;;;;;;;8.39;50.74;99283.00;4515499;31;34556;-84
2022/01/28 04:13:25;;;;;;;;;;;;;;;7.38;53.14;99280.41;4499616;31;35395;-84
2022/01/28 04:18:26;;;;;;;;;;;;;;;7.44;52.73;99284.87;4509726;31;34193;-83
2022/01/28 04:20:54;;;;;;;;;;;;;;;7.54;52.07;99292.06;4515216;31;34100;-84
2022/01/28 04:23:21;;;;;;;;;;;;;;;7.45;52.92;99289.22;4515685;31;35252;-86
2022/01/28 04:25:48;;;;;;;;;;;;;;;7.05;53.14;99280.38;4514883;31;34402;-84
2022/01/28 04:28:15;;;;;;;;;;;;;;;6.51;54.80;99276.19;4506165;31;33405;-85
2022/01/28 04:30:43;;;;;;;;;;;;;;;6.99;53.96;99277.63;4499518;31;32852;-85
2022/01/28 04:33:10;;;;;;;;;;;;;;;7.07;53.36;99278.69;4499448;31;34295;-84
2022/01/28 04:35:37;;;;;;;;;;;;;;;7.02;53.16;99276.00;4502776;31;35332;-84
2022/01/28 04:41:03;;;;;;;;;;;;;;;6.66;53.58;99270.63;4499148;31;33732;-83
2022/01/28 04:43:38;;;;;;;;;;;;;;;7.08;52.50;99275.28;4499698;31;35258;-84
2022/01/28 04:46:14;;;;;;;;;;;;;;;6.78;53.19;99271.03;4500205;31;35086;-83
2022/01/28 04:48:50;;;;;;;;;;;;;;;6.46;54.32;99259.72;4502161;31;34116;-84
2022/01/28 04:54:37;;;;;;;;;;;;;;;6.55;54.10;99266.84;4499479;31;34083;-84
2022/01/28 04:59:38;;;;;;;;;;;;;;;6.22;54.64;99277.00;4499576;31;34889;-84
2022/01/28 05:07:34;;;;;;;;;;;;;;;6.33;54.56;99268.78;4502933;31;34239;-84
2022/01/28 05:13:34;;;;;;;;;;;;;;;7.58;51.33;99275.81;4488027;31;34079;-83
2022/01/28 05:27:02;;;;;;;;;;;;;;;6.38;53.93;99292.09;4503050;31;34468;-83
2022/01/28 05:29:29;;;;;;;;;;;;;;;7.15;51.73;99276.34;4499568;31;35152;-83
2022/01/28 05:31:56;;;;;;;;;;;;;;;7.39;50.98;99268.44;4504024;31;33537;-84
2022/01/28 05:34:26;;;;;;;;;;;;;;;7.48;50.45;99273.81;4506679;31;34933;-83
2022/01/28 05:36:54;;;;;;;;;;;;;;;7.38;50.67;99279.56;4505114;31;34100;-82
2022/01/28 05:39:21;;;;;;;;;;;;;;;7.45;50.58;99251.38;4499019;31;33992;-84
2022/01/28 05:41:48;;;;;;;;;;;;;;;7.30;50.73;99272.47;4502340;31;33152;-84
2022/01/28 05:44:15;;;;;;;;;;;;;;;6.74;52.27;99266.59;4514738;31;33729;-86
2022/01/28 05:46:44;;;;;;;;;;;;;;;6.98;51.62;99256.13;4511698;31;33899;-82
2022/01/28 05:49:13;;;;;;;;;;;;;;;7.06;51.17;99257.22;4499948;31;34402;-83
2022/01/28 05:51:41;;;;;;;;;;;;;;;5.91;54.37;99270.84;4501403;31;34018;-84
2022/01/28 05:54:08;;;;;;;;;;;;;;;6.30;53.43;99271.28;4506723;31;33897;-84
2022/01/28 05:56:36;;;;;;;;;;;;;;;6.15;54.42;99291.38;4509606;31;34249;-84
2022/01/28 05:59:03;;;;;;;;;;;;;;;6.18;54.36;99276.03;4504694;31;33781;-86
2022/01/28 06:01:30;;;;;;;;;;;;;;;6.27;54.05;99289.19;4511098;31;33385;-84
2022/01/28 06:03:58;;;;;;;;;;;;;;;5.80;55.41;99282.47;4506943;31;34275;-84
2022/01/28 06:06:25;;;;;;;;;;;;;;;5.84;55.52;99289.47;4507993;31;34475;-85
2022/01/28 06:08:53;;;;;;;;;;;;;;;6.24;54.45;99311.38;4497534;31;34589;-83
2022/01/28 06:11:22;;;;;;;;;;;;;;;7.03;52.29;99312.97;4507233;31;33313;-84
2022/01/28 06:13:49;;;;;;;;;;;;;;;7.18;51.89;99317.69;4514337;31;34290;-84
2022/01/28 06:16:17;;;;;;;;;;;;;;;6.99;52.16;99319.72;4513028;31;34545;-84
2022/01/28 06:18:44;;;;;;;;;;;;;;;6.93;52.77;99334.12;4510171;31;34568;-84
2022/01/28 06:21:12;;;;;;;;;;;;;;;7.04;52.60;99335.31;4513459;31;34522;-84
2022/01/28 06:23:39;;;;;;;;;;;;;;;7.26;51.86;99327.38;4513939;31;34854;-85
2022/01/28 06:26:06;;;;;;;;;;;;;;;7.01;52.06;99338.69;4514020;31;33993;-84
2022/01/28 06:28:33;;;;;;;;;;;;;;;6.89;52.41;99345.16;4513801;31;35046;-83
2022/01/28 06:31:01;;;;;;;;;;;;;;;7.76;49.98;99358.84;4514338;31;33158;-84
2022/01/28 06:33:28;;;;;;;;;;;;;;;6.95;52.31;99343.66;4516106;31;33796;-85
2022/01/28 06:35:56;;;;;;;;;;;;;;;8.04;49.11;99334.66;4516132;31;34419;-84
2022/01/28 06:38:23;;;;;;;;;;;;;;;7.68;50.27;99339.72;4512455;31;34638;-83
2022/01/28 06:40:51;;;;;;;;;;;;;;;7.73;49.05;99334.69;4500342;31;34062;-84
2022/01/28 06:43:18;;;;;;;;;;;;;;;7.51;50.31;99348.72;4510987;31;34194;-84
2022/01/28 06:45:45;;;;;;;;;;;;;;;6.92;51.59;99341.00;4514789;31;35170;-84
2022/01/28 06:48:13;;;;;;;;;;;;;;;6.83;51.70;99339.03;4516012;31;34261;-84
2022/01/28 06:50:42;;;;;;;;;;;;;;;6.25;52.80;99357.78;4515950;31;34085;-84
2022/01/28 06:53:10;;;;;;;;;;;;;;;6.88;51.22;99353.75;4515985;31;34216;-83
2022/01/28 06:55:37;;;;;;;;;;;;;;;6.66;51.66;99358.22;4515727;31;34472;-83
2022/01/28 06:58:07;;;;;;;;;;;;;;;7.01;50.89;99368.75;4516093;31;34327;-83
2022/01/28 07:00:37;;;;;;;;;;;;;;;7.54;49.38;99377.19;4516011;31;33486;-83
2022/01/28 07:03:08;;;;;;;;;;;;;;;7.49;49.33;99389.94;4515912;31;34248;-83
2022/01/28 07:05:36;;;;;;;;;;;;;;;7.78;48.31;99388.16;4515833;31;33750;-83
2022/01/28 07:08:04;;;;;;;;;;;;;;;8.63;46.35;99396.41;4515009;31;35273;-83
2022/01/28 07:10:32;;;;;;;;;;;;;;;8.19;47.31;99398.72;4515952;31;34555;-83
2022/01/28 07:12:59;;;;;;;;;;;;;;;7.53;49.31;99399.50;4514855;31;33977;-84
2022/01/28 07:15:27;;;;;;;;;;;;;;;6.82;51.25;99411.12;4516063;31;34553;-83
2022/01/28 07:17:55;;;;;;;;;;;;;;;8.36;47.41;99409.47;4515777;31;34301;-84
2022/01/28 07:20:25;;;;;;;;;;;;;;;7.70;48.90;99407.75;4514543;31;32894;-84
2022/01/28 07:22:52;;;;;;;;;;;;;;;7.37;49.30;99412.78;4515898;31;33646;-84
2022/01/28 07:25:19;;;;;;;;;;;;;;;7.46;49.45;99405.34;4515929;31;34255;-84
2022/01/28 07:27:47;;;;;;;;;;;;;;;7.84;48.56;99378.84;4515867;31;34339;-83
2022/01/28 07:30:14;;;;;;;;;;;;;;;7.79;48.02;99384.75;4516097;31;33793;-83
2022/01/28 07:32:42;;;;;;;;;;;;;;;7.97;47.27;99386.09;4515815;31;34530;-83
2022/01/28 07:35:11;;;;;;;;;;;;;;;7.97;46.01;99384.37;4515613;31;35397;-83
2022/01/28 07:37:39;;;;;;;;;;;;;;;7.21;48.35;99380.53;4515829;31;34251;-83
2022/01/28 07:40:07;;;;;;;;;;;;;;;7.93;46.87;99397.16;4514457;31;33503;-84
2022/01/28 07:42:36;;;;;;;;;;;;;;;7.76;46.22;99387.25;4515632;31;34069;-83
2022/01/28 07:45:05;;;;;;;;;;;;;;;7.96;46.35;99408.47;4513865;31;34205;-84
2022/01/28 07:47:32;;;;;;;;;;;;;;;7.94;46.07;99404.06;4515559;31;34901;-83
2022/01/28 07:49:59;;;;;;;;;;;;;;;7.82;45.86;99411.50;4515788;31;33794;-83
2022/01/28 07:52:27;;;;;;;;;;;;;;;7.74;45.58;99412.16;4515537;31;35047;-83
2022/01/28 07:54:54;;;;;;;;;;;;;;;8.97;42.89;99413.56;4515491;31;35018;-84
2022/01/28 07:57:21;;;;;;;;;;;;;;;7.38;45.96;99413.66;4515608;31;34718;-84
2022/01/28 07:59:49;;;;;;;;;;;;;;;7.84;45.10;99414.97;4515333;31;33796;-83
2022/01/28 08:02:16;;;;;;;;;;;;;;;7.85;45.30;99409.00;4515681;31;34253;-84
2022/01/28 08:04:44;;;;;;;;;;;;;;;7.94;45.30;99406.66;4515493;31;35114;-83
2022/01/28 08:07:11;;;;;;;;;;;;;;;8.37;44.49;99394.84;4515466;31;33696;-83
2022/01/28 08:09:38;;;;;;;;;;;;;;;8.35;44.09;99409.47;4515617;31;34306;-85
2022/01/28 08:12:06;;;;;;;;;;;;;;;7.86;45.07;99397.84;4515464;31;34227;-83
2022/01/28 08:14:33;;;;;;;;;;;;;;;7.19;46.38;99399.34;4514133;31;34337;-84
2022/01/28 08:17:00;;;;;;;;;;;;;;;6.89;46.84;99422.50;4515801;31;35084;-84
2022/01/28 08:19:28;;;;;;;;;;;;;;;7.07;45.75;99413.63;4515130;31;34221;-82
2022/01/28 08:21:55;;;;;;;;;;;;;;;7.55;45.18;99418.50;4515052;31;34145;-83
2022/01/28 08:24:22;;;;;;;;;;;;;;;7.92;43.92;99429.00;4515329;31;34418;-83
2022/01/28 08:26:50;;;;;;;;;;;;;;;7.81;44.36;99426.09;4515345;31;34253;-83
2022/01/28 08:29:17;;;;;;;;;;;;;;;7.76;44.06;99413.06;4515284;31;33342;-84
2022/01/28 08:31:44;;;;;;;;;;;;;;;8.28;42.12;99421.34;4515443;31;34870;-83
2022/01/28 08:34:12;;;;;;;;;;;;;;;8.42;42.55;99429.47;4515341;31;34305;-83
2022/01/28 08:36:39;;;;;;;;;;;;;;;8.82;40.93;99412.34;4515385;31;34909;-83
2022/01/28 08:39:09;;;;;;;;;;;;;;;8.26;41.87;99426.47;4514225;31;34001;-84
2022/01/28 08:41:39;;;;;;;;;;;;;;;8.07;42.38;99413.91;4515421;31;35079;-83
2022/01/28 08:44:06;;;;;;;;;;;;;;;8.66;40.59;99404.22;4515103;31;34510;-84
2022/01/28 08:46:33;;;;;;;;;;;;;;;8.09;41.74;99421.69;4514891;31;34929;-84
2022/01/28 08:49:03;;;;;;;;;;;;;;;7.47;42.55;99401.06;4515252;31;34513;-83
2022/01/28 08:51:36;;;;;;;;;;;;;;;7.54;42.30;99426.22;4515250;31;33952;-83
2022/01/28 08:54:03;;;;;;;;;;;;;;;7.98;41.38;99421.41;4515059;31;34403;-83
2022/01/28 08:56:30;;;;;;;;;;;;;;;8.56;39.62;99414.31;4512750;31;34991;-83
2022/01/28 08:58:57;;;;;;;;;;;;;;;8.59;39.39;99407.50;4515104;31;33067;-84
2022/01/28 09:01:25;;;;;;;;;;;;;;;8.12;40.66;99402.00;4515011;31;34096;-83
2022/01/28 09:03:52;;;;;;;;;;;;;;;7.92;41.47;99403.19;4515265;31;34875;-83
2022/01/28 09:06:19;;;;;;;;;;;;;;;8.04;41.42;99411.25;4515050;31;34734;-83
2022/01/28 09:08:49;;;;;;;;;;;;;;;8.32;41.45;99378.38;4515225;31;32922;-82
2022/01/28 09:13:49;;;;;;;;;;;;;;;7.96;43.01;99415.34;4515073;31;35405;-84
2022/01/28 09:16:17;;;;;;;;;;;;;;;7.76;44.02;99422.50;4515001;31;35047;-84
2022/01/28 09:18:45;;;;;;;;;;;;;;;7.94;43.85;99422.16;4514798;31;33351;-84
2022/01/28 09:21:12;;;;;;;;;;;;;;;8.34;43.06;99430.97;4514014;31;34206;-84
2022/01/28 09:23:40;;;;;;;;;;;;;;;8.24;43.47;99432.41;4515173;31;34483;-84
2022/01/28 09:26:07;;;;;;;;;;;;;;;7.50;45.17;99421.75;4514932;31;33017;-84
2022/01/28 09:28:34;;;;;;;;;;;;;;;8.03;43.71;99440.44;4515340;31;34314;-85
2022/01/28 09:31:02;;;;;;;;;;;;;;;7.97;43.15;99440.31;4514922;31;33948;-84
2022/01/28 09:33:29;;;;;;;;;;;;;;;7.83;43.88;99432.16;4514762;31;34442;-84
2022/01/28 09:35:56;;;;;;;;;;;;;;;8.39;43.03;99457.81;4515110;31;34562;-83
2022/01/28 09:38:24;;;;;;;;;;;;;;;8.62;41.83;99446.34;4514903;31;34475;-83
2022/01/28 09:40:51;;;;;;;;;;;;;;;8.46;42.77;99467.47;4514755;31;34294;-83
2022/01/28 09:43:18;;;;;;;;;;;;;;;8.96;40.68;99449.75;4514823;31;35488;-83
2022/01/28 09:45:48;;;;;;;;;;;;;;;9.30;40.57;99460.87;4514697;31;33665;-83
2022/01/28 09:48:17;;;;;;;;;;;;;;;8.05;41.40;99447.41;4514682;31;33291;-84
2022/01/28 09:50:46;;;;;;;;;;;;;;;7.38;42.88;99455.81;4513394;31;34336;-83
2022/01/28 09:53:14;;;;;;;;;;;;;;;7.74;42.43;99445.69;4513561;31;33987;-83
2022/01/28 09:55:42;;;;;;;;;;;;;;;8.64;40.74;99434.34;4514483;31;35070;-84
2022/01/28 09:58:09;;;;;;;;;;;;;;;8.39;41.02;99445.78;4514709;31;33457;-83
2022/01/28 10:00:36;;;;;;;;;;;;;;;8.70;40.44;99452.56;4514383;31;34027;-83
2022/01/28 10:03:05;;;;;;;;;;;;;;;9.21;39.05;99448.62;4514574;31;34429;-84
2022/01/28 10:05:43;;;;;;;;;;;;;;;8.42;40.38;99456.19;4514595;31;34237;-79
2022/01/28 10:08:15;;;;;;;;;;;;;;;8.66;39.44;99445.59;4512432;31;34175;-83
2022/01/28 10:11:14;;;;;;;;;;;;;;;8.68;38.99;99459.44;4514534;31;34001;-83
2022/01/28 10:13:45;;;;;;;;;;;;;;;8.45;39.43;99437.31;4514092;31;34415;-83
2022/01/28 10:16:23;;;;;;;;;;;;;;;8.41;39.17;99440.62;4514488;31;33873;-83
2022/01/28 10:18:51;;;;;;;;;;;;;;;8.27;39.60;99404.97;4512932;31;32978;-84
2022/01/28 10:21:23;;;;;;;;;;;;;;;7.87;39.57;99425.38;4512945;31;33391;-84
2022/01/28 10:24:14;;;;;;;;;;;;;;;8.19;38.73;99427.16;4513282;31;35057;-84
2022/01/28 10:26:56;;;;;;;;;;;;;;;8.70;38.11;99416.38;4509811;31;33740;-83
2022/01/28 10:29:25;;;;;;;;;;;;;;;8.89;37.49;99437.53;4514234;31;34895;-83
2022/01/28 10:31:59;;;;;;;;;;;;;;;8.59;37.36;99415.25;4513086;31;34211;-84
2022/01/28 10:34:29;;;;;;;;;;;;;;;8.67;37.08;99408.56;4514017;31;34315;-83
2022/01/28 10:37:06;;;;;;;;;;;;;;;8.50;37.36;99410.75;4514064;31;33751;-83
2022/01/28 10:39:38;;;;;;;;;;;;;;;8.59;38.47;99409.22;4514073;31;34320;-83
2022/01/28 10:42:05;;;;;;;;;;;;;;;8.41;38.33;99407.03;4513878;31;33733;-84
2022/01/28 10:44:32;;;;;;;;;;;;;;;9.24;37.17;99403.00;4514034;31;34525;-83
2022/01/28 10:47:01;;;;;;;;;;;;;;;9.59;36.20;99389.94;4513939;31;34313;-80
2022/01/28 10:49:33;;;;;;;;;;;;;;;8.77;37.99;99400.19;4513987;31;32844;-83
2022/01/28 10:52:03;;;;;;;;;;;;;;;8.56;38.48;99394.53;4512611;31;34182;-83
2022/01/28 10:54:31;;;;;;;;;;;;;;;8.92;38.14;99422.09;4512347;31;35245;-83
2022/01/28 10:56:59;;;;;;;;;;;;;;;8.74;38.17;99397.53;4513672;31;34317;-83
2022/01/28 10:59:31;;;;;;;;;;;;;;;9.05;37.90;99418.06;4512380;31;33510;-84
2022/01/28 11:01:58;;;;;;;;;;;;;;;8.60;39.60;99405.78;4513615;31;34105;-83
2022/01/28 11:04:26;;;;;;;;;;;;;;;9.17;38.84;99406.28;4513744;31;34880;-84
2022/01/28 11:06:55;;;;;;;;;;;;;;;9.42;38.95;99404.22;4513675;31;33875;-83
2022/01/28 11:09:22;;;;;;;;;;;;;;;9.18;39.69;99408.03;4513734;31;34174;-83
2022/01/28 11:11:50;;;;;;;;;;;;;;;9.52;38.52;99403.59;4513364;31;34241;-83
2022/01/28 11:14:17;;;;;;;;;;;;;;;9.29;39.64;99410.00;4513450;31;35101;-85
2022/01/28 11:16:45;;;;;;;;;;;;;;;9.39;39.07;99425.72;4513251;31;34552;-83
2022/01/28 11:19:13;;;;;;;;;;;;;;;9.27;39.87;99428.03;4514347;31;33790;-84
2022/01/28 11:21:46;;;;;;;;;;;;;;;8.47;41.05;99443.38;4515012;31;34206;-84
2022/01/28 11:24:34;;;;;;;;;;;;;;;8.51;41.47;99458.13;4514948;31;33806;-83
2022/01/28 11:27:04;;;;;;;;;;;;;;;9.08;40.54;99482.78;4514975;31;34117;-83
2022/01/28 11:29:32;;;;;;;;;;;;;;;9.17;40.29;99465.78;4514032;31;34297;-82
2022/01/28 11:32:08;;;;;;;;;;;;;;;8.42;41.96;99463.06;4515237;31;34141;-85
2022/01/28 11:34:36;;;;;;;;;;;;;;;9.08;40.55;99470.72;4514877;31;34542;-84
2022/01/28 11:37:03;;;;;;;;;;;;;;;8.31;40.99;99470.50;4515507;31;35086;-84
2022/01/28 11:39:32;;;;;;;;;;;;;;;8.20;40.81;99471.91;4515822;31;33012;-84
2022/01/28 11:42:04;;;;;;;;;;;;;;;8.90;40.00;99483.22;4514120;31;33882;-83
2022/01/28 11:44:45;;;;;;;;;;;;;;;9.13;40.09;99470.81;4515780;31;34041;-83
2022/01/28 11:47:26;;;;;;;;;;;;;;;8.78;40.73;99457.94;4514487;31;35133;-83
2022/01/28 11:49:59;;;;;;;;;;;;;;;8.51;41.00;99468.47;4516020;31;34248;-83
2022/01/28 11:52:31;;;;;;;;;;;;;;;8.49;41.04;99465.84;4515645;31;35158;-84
2022/01/28 11:55:27;;;;;;;;;;;;;;;7.49;43.18;99462.16;4514119;31;35242;-83
2022/01/28 11:58:04;;;;;;;;;;;;;;;8.53;42.00;99457.34;4502355;31;33885;-85
2022/01/28 12:00:41;;;;;;;;;;;;;;;8.06;42.34;99443.13;4515585;31;33412;-83
2022/01/28 12:03:24;;;;;;;;;;;;;;;8.63;41.65;99453.25;4515392;31;33670;-84
2022/01/28 12:05:58;;;;;;;;;;;;;;;9.32;40.42;99443.66;4515392;31;34362;-84
2022/01/28 12:08:26;;;;;;;;;;;;;;;9.36;39.98;99433.44;4514205;31;33892;-83
2022/01/28 12:10:54;;;;;;;;;;;;;;;8.92;40.58;99458.28;4515640;31;33978;-83
2022/01/28 12:13:29;;;;;;;;;;;;;;;9.27;40.12;99469.44;4515602;31;34107;-83
2022/01/28 12:16:04;;;;;;;;;;;;;;;9.51;39.39;99466.53;4515425;31;35211;-83
2022/01/28 12:18:54;;;;;;;;;;;;;;;9.18;40.08;99475.28;4514239;31;34158;-84
2022/01/28 12:21:22;;;;;;;;;;;;;;;9.17;40.18;99473.53;4515484;31;33162;-84
2022/01/28 12:23:50;;;;;;;;;;;;;;;8.84;40.32;99480.50;4515711;31;34156;-83
2022/01/28 12:26:17;;;;;;;;;;;;;;;8.80;40.35;99486.44;4515543;31;34107;-81
2022/01/28 12:28:45;;;;;;;;;;;;;;;9.25;39.08;99491.84;4515547;31;34203;-84
2022/01/28 12:31:16;;;;;;;;;;;;;;;8.43;41.18;99485.47;4500797;31;33473;-83
2022/01/28 12:33:45;;;;;;;;;;;;;;;8.91;39.93;99490.16;4514163;31;33920;-83
2022/01/28 12:36:15;;;;;;;;;;;;;;;8.88;39.69;99485.78;4515469;31;34017;-84
2022/01/28 12:38:54;;;;;;;;;;;;;;;8.40;40.54;99495.72;4515182;31;34912;-84
2022/01/28 12:41:23;;;;;;;;;;;;;;;8.37;41.11;99505.94;4515342;31;33441;-81
2022/01/28 12:43:51;;;;;;;;;;;;;;;9.06;38.98;99513.81;4515400;31;34283;-83
2022/01/28 12:46:18;;;;;;;;;;;;;;;9.30;39.12;99499.69;4513512;31;34410;-83
2022/01/28 12:48:46;;;;;;;;;;;;;;;8.53;40.04;99497.81;4506931;31;34355;-85
2022/01/28 12:51:14;;;;;;;;;;;;;;;8.08;41.51;99508.63;4516191;31;33466;-83
2022/01/28 12:53:43;;;;;;;;;;;;;;;8.19;41.43;99514.94;4513568;31;33683;-83
2022/01/28 12:56:11;;;;;;;;;;;;;;;7.78;41.65;99506.91;4515217;31;35408;-83
2022/01/28 12:58:38;;;;;;;;;;;;;;;8.04;41.58;99504.19;4513759;31;35273;-83
2022/01/28 13:01:12;;;;;;;;;;;;;;;7.94;41.58;99509.91;4515117;31;33528;-83
2022/01/28 13:03:55;;;;;;;;;;;;;;;8.47;39.98;99507.97;4515053;31;34118;-82
2022/01/28 13:06:39;;;;;;;;;;;;;;;8.90;39.81;99509.06;4506947;31;34241;-83
2022/01/28 13:09:20;;;;;;;;;;;;;;;8.81;40.24;99516.59;4499406;31;35089;-83
2022/01/28 13:11:49;;;;;;;;;;;;;;;8.46;40.98;99506.22;4510325;31;33439;-84
2022/01/28 13:14:20;;;;;;;;;;;;;;;9.25;39.11;99507.34;4513740;31;35035;-84
2022/01/28 13:16:48;;;;;;;;;;;;;;;8.92;39.84;99510.00;4502719;31;35306;-80
2022/01/28 13:19:16;;;;;;;;;;;;;;;8.07;41.70;99498.22;4498770;31;34210;-81
2022/01/28 13:21:44;;;;;;;;;;;;;;;7.90;41.90;99508.09;4498659;31;34015;-82
2022/01/28 13:24:13;;;;;;;;;;;;;;;8.36;41.41;99501.62;4498493;31;33752;-82
2022/01/28 13:26:52;;;;;;;;;;;;;;;8.80;40.43;99501.94;4498852;31;34572;-81
2022/01/28 13:29:39;;;;;;;;;;;;;;;8.62;40.48;99502.34;4498633;31;34372;-82
2022/01/28 13:32:11;;;;;;;;;;;;;;;7.77;42.42;99479.34;4498902;31;34099;-81
2022/01/28 13:34:48;;;;;;;;;;;;;;;8.05;41.73;99490.44;4501114;31;34952;-81
2022/01/28 13:37:31;;;;;;;;;;;;;;;8.33;41.23;99512.72;4514495;31;34175;-82
2022/01/28 13:39:59;;;;;;;;;;;;;;;8.70;40.91;99496.53;4514610;31;33927;-81
2022/01/28 13:42:26;;;;;;;;;;;;;;;8.44;40.42;99482.06;4513691;31;33461;-81
2022/01/28 13:44:53;;;;;;;;;;;;;;;8.37;40.60;99480.09;4510141;31;34073;-81
2022/01/28 13:47:21;;;;;;;;;;;;;;;8.07;41.23;99474.97;4498616;31;34487;-81
2022/01/28 13:49:55;;;;;;;;;;;;;;;8.29;41.02;99482.47;4497394;31;33921;-79
2022/01/28 13:52:41;;;;;;;;;;;;;;;8.03;41.26;99485.25;4498642;31;33755;-81
2022/01/28 13:55:28;;;;;;;;;;;;;;;7.73;42.31;99500.75;4502821;31;34056;-81
2022/01/28 13:58:05;;;;;;;;;;;;;;;7.96;41.45;99496.22;4514467;31;34212;-81
2022/01/28 14:00:36;;;;;;;;;;;;;;;8.30;40.96;99499.75;4514458;31;34944;-81
2022/01/28 14:03:03;;;;;;;;;;;;;;;8.17;41.13;99508.84;4501930;31;33301;-80
2022/01/28 14:05:51;;;;;;;;;;;;;;;8.93;39.83;99519.50;4497248;31;35024;-80
2022/01/28 14:08:43;;;;;;;;;;;;;;;8.31;40.83;99517.00;4498716;31;34960;-80
2022/01/28 14:11:26;;;;;;;;;;;;;;;8.71;40.56;99521.56;4498399;31;34171;-81
2022/01/28 14:14:06;;;;;;;;;;;;;;;8.40;41.08;99527.59;4513741;31;32967;-81
2022/01/28 14:16:33;;;;;;;;;;;;;;;8.94;40.59;99536.75;4514328;31;34036;-80
2022/01/28 14:19:01;;;;;;;;;;;;;;;8.55;41.45;99531.44;4513781;31;34526;-81
2022/01/28 14:21:28;;;;;;;;;;;;;;;7.98;42.65;99542.75;4513928;31;33514;-82
2022/01/28 14:23:55;;;;;;;;;;;;;;;8.81;41.44;99551.09;4500152;31;34011;-82
2022/01/28 14:26:24;;;;;;;;;;;;;;;10.05;39.47;99545.34;4498516;31;35090;-82
2022/01/28 14:31:25;;;;;;;;;;;;;;;9.06;40.57;99565.53;4498140;31;33872;-82
2022/01/28 14:33:52;;;;;;;;;;;;;;;8.38;41.41;99574.91;4512833;31;33191;-82
2022/01/28 14:36:29;;;;;;;;;;;;;;;8.78;41.39;99564.78;4514246;31;33883;-82